createdAt,value
2022-08-25T00:01:37.860Z,6.15
2022-08-25T00:04:10.281Z,5.53
2022-08-25T00:06:38.444Z,6.07
2022-08-25T00:09:05.728Z,6.03
2022-08-25T00:11:34.028Z,5.47
2022-08-25T00:14:04.900Z,6.45
2022-08-25T00:16:32.413Z,5.55
2022-08-25T00:19:03.189Z,5.60
2022-08-25T00:21:31.781Z,5.90
2022-08-25T00:23:59.679Z,5.93
2022-08-25T00:26:27.552Z,6.30
2022-08-25T00:28:54.256Z,6.40
2022-08-25T00:31:38.500Z,5.57
2022-08-25T00:34:11.601Z,5.72
2022-08-25T00:36:38.567Z,5.50
2022-08-25T00:39:07.353Z,5.90
2022-08-25T00:41:35.380Z,5.72
2022-08-25T00:44:05.232Z,5.90
2022-08-25T00:46:38.969Z,5.85
2022-08-25T00:49:14.689Z,5.80
2022-08-25T00:51:55.102Z,6.40
2022-08-25T00:54:29.925Z,5.50
2022-08-25T00:56:59.138Z,6.80
2022-08-25T00:59:26.873Z,6.00
2022-08-25T01:01:55.050Z,6.13
2022-08-25T01:04:22.124Z,5.90
2022-08-25T01:06:49.242Z,6.35
2022-08-25T01:09:16.675Z,6.15
2022-08-25T01:11:44.783Z,6.13
2022-08-25T01:14:15.960Z,6.77
2022-08-25T01:16:43.740Z,6.90
2022-08-25T01:19:15.499Z,7.38
2022-08-25T01:21:48.077Z,6.97
2022-08-25T01:24:21.216Z,7.20
2022-08-25T01:26:47.725Z,7.03
2022-08-25T01:29:25.265Z,6.60
2022-08-25T01:31:57.351Z,6.50
2022-08-25T01:34:26.496Z,6.40
2022-08-25T01:36:54.435Z,6.88
2022-08-25T01:39:20.924Z,6.77
2022-08-25T01:41:58.594Z,6.55
2022-08-25T01:44:25.833Z,6.50
2022-08-25T01:46:52.913Z,6.95
2022-08-25T01:49:19.264Z,6.45
2022-08-25T01:51:53.405Z,6.33
2022-08-25T01:54:20.298Z,6.63
2022-08-25T01:56:46.995Z,6.97
2022-08-25T01:59:23.953Z,6.38
2022-08-25T02:01:50.562Z,7.50
2022-08-25T02:04:17.035Z,7.50
2022-08-25T02:06:48.141Z,6.72
2022-08-25T02:09:16.777Z,6.63
2022-08-25T02:11:46.470Z,7.15
2022-08-25T02:14:14.032Z,7.28
2022-08-25T02:16:44.647Z,7.37
2022-08-25T02:19:12.020Z,8.13
2022-08-25T02:21:39.396Z,7.60
2022-08-25T02:24:06.938Z,7.55
2022-08-25T02:26:36.144Z,8.13
2022-08-25T02:29:04.031Z,8.17
2022-08-25T02:31:30.453Z,8.25
2022-08-25T02:33:57.207Z,7.47
2022-08-25T02:36:23.832Z,7.60
2022-08-25T02:38:50.721Z,7.20
2022-08-25T02:41:20.917Z,7.37
2022-08-25T02:43:48.568Z,7.25
2022-08-25T02:46:17.910Z,7.03
2022-08-25T02:48:45.131Z,7.22
2022-08-25T02:51:12.378Z,7.70
2022-08-25T02:53:40.504Z,7.50
2022-08-25T02:56:09.723Z,6.88
2022-08-25T02:58:37.253Z,7.63
2022-08-25T03:01:04.861Z,7.43
2022-08-25T03:03:31.466Z,7.50
2022-08-25T03:05:57.867Z,7.30
2022-08-25T03:08:25.171Z,7.82
2022-08-25T03:10:52.056Z,7.65
2022-08-25T03:13:18.681Z,7.45
2022-08-25T03:15:46.144Z,7.35
2022-08-25T03:18:15.864Z,7.13
2022-08-25T03:20:44.481Z,6.78
2022-08-25T03:23:11.280Z,6.65
2022-08-25T03:26:00.631Z,7.15
2022-08-25T03:28:31.130Z,7.07
2022-08-25T03:30:57.564Z,7.40
2022-08-25T03:33:23.942Z,7.30
2022-08-25T03:35:50.402Z,6.40
2022-08-25T03:38:16.958Z,6.32
2022-08-25T03:40:43.348Z,6.93
2022-08-25T03:43:09.699Z,6.80
2022-08-25T03:45:41.364Z,6.68
2022-08-25T03:48:07.890Z,6.40
2022-08-25T03:50:34.590Z,7.32
2022-08-25T03:53:00.977Z,6.97
2022-08-25T03:55:27.606Z,6.80
2022-08-25T03:57:54.641Z,6.70
2022-08-25T04:00:22.853Z,6.78
2022-08-25T04:02:49.553Z,7.10
2022-08-25T04:05:16.071Z,6.72
2022-08-25T04:07:42.463Z,6.97
2022-08-25T04:10:10.401Z,6.88
2022-08-25T04:12:37.622Z,6.93
2022-08-25T04:15:05.580Z,5.97
2022-08-25T04:17:32.329Z,7.22
2022-08-25T04:19:59.345Z,6.60
2022-08-25T04:22:25.799Z,6.90
2022-08-25T04:24:55.232Z,6.10
2022-08-25T04:27:21.575Z,7.00
2022-08-25T04:29:47.987Z,5.63
2022-08-25T04:32:14.443Z,6.33
2022-08-25T04:34:41.383Z,5.85
2022-08-25T04:37:07.882Z,6.10
2022-08-25T04:39:34.320Z,6.40
2022-08-25T04:42:01.450Z,5.85
2022-08-25T04:44:29.013Z,6.23
2022-08-25T04:46:55.535Z,5.93
2022-08-25T04:49:21.925Z,6.50
2022-08-25T04:51:48.303Z,6.43
2022-08-25T04:54:22.300Z,6.75
2022-08-25T04:56:50.352Z,6.80
2022-08-25T04:59:21.222Z,6.82
2022-08-25T05:01:50.110Z,7.05
2022-08-25T05:04:28.262Z,6.10
2022-08-25T05:06:56.677Z,6.57
2022-08-25T05:09:23.805Z,7.40
2022-08-25T05:11:51.921Z,6.97
2022-08-25T05:14:21.602Z,6.72
2022-08-25T05:16:52.052Z,6.90
2022-08-25T05:19:18.706Z,6.93
2022-08-25T05:21:45.061Z,7.27
2022-08-25T05:24:11.454Z,7.00
2022-08-25T05:26:38.327Z,6.57
2022-08-25T05:29:06.143Z,6.18
2022-08-25T05:31:36.334Z,6.18
2022-08-25T05:34:08.832Z,6.23
2022-08-25T05:36:35.761Z,5.82
2022-08-25T05:39:02.244Z,6.68
2022-08-25T05:41:30.611Z,6.13
2022-08-25T05:43:57.660Z,6.20
2022-08-25T05:46:24.628Z,5.60
2022-08-25T05:48:51.887Z,5.28
2022-08-25T05:51:21.495Z,5.80
2022-08-25T05:53:50.657Z,5.53
2022-08-25T05:56:18.313Z,5.60
2022-08-25T05:58:45.803Z,6.10
2022-08-25T06:01:44.937Z,5.65
2022-08-25T06:04:12.851Z,6.00
2022-08-25T06:06:39.635Z,5.80
2022-08-25T06:09:08.550Z,5.55
2022-08-25T06:11:36.166Z,4.80
2022-08-25T06:14:02.641Z,5.10
2022-08-25T06:16:29.178Z,4.88
2022-08-25T06:18:55.578Z,5.35
2022-08-25T06:21:22.003Z,5.28
2022-08-25T06:23:49.199Z,5.40
2022-08-25T06:26:21.297Z,4.82
2022-08-25T06:28:49.322Z,4.97
2022-08-25T06:31:15.796Z,5.60
2022-08-25T06:33:42.918Z,5.93
2022-08-25T06:36:09.677Z,5.17
2022-08-25T06:38:36.694Z,6.05
2022-08-25T06:41:05.517Z,6.40
2022-08-25T06:43:35.539Z,5.35
2022-08-25T06:46:14.359Z,4.90
2022-08-25T06:48:41.500Z,5.10
2022-08-25T06:51:10.220Z,5.20
2022-08-25T06:53:41.334Z,4.80
2022-08-25T06:56:08.338Z,5.22
2022-08-25T06:58:35.339Z,5.05
2022-08-25T07:01:20.024Z,5.17
2022-08-25T07:03:47.511Z,4.70
2022-08-25T07:06:14.870Z,4.68
2022-08-25T07:08:45.870Z,4.57
2022-08-25T07:11:16.319Z,4.53
2022-08-25T07:13:44.684Z,4.23
2022-08-25T07:16:11.369Z,4.28
2022-08-25T07:18:38.376Z,3.72
2022-08-25T07:21:05.720Z,3.80
2022-08-25T07:23:35.432Z,3.55
2022-08-25T07:26:36.307Z,3.43
2022-08-25T07:29:00.781Z,3.13
2022-08-25T07:31:29.482Z,3.40
2022-08-25T07:34:14.707Z,3.45
2022-08-25T07:36:43.061Z,3.08
2022-08-25T07:39:09.540Z,2.93
2022-08-25T07:41:37.807Z,3.30
2022-08-25T07:44:05.635Z,3.22
2022-08-25T07:46:32.688Z,3.45
2022-08-25T07:49:00.257Z,3.20
2022-08-25T07:53:53.967Z,3.50
2022-08-25T07:56:20.316Z,3.20
2022-08-25T07:58:47.672Z,3.63
2022-08-25T08:01:19.706Z,3.30
2022-08-25T08:03:50.058Z,3.60
2022-08-25T08:06:20.956Z,2.90
2022-08-25T08:08:49.509Z,3.42
2022-08-25T08:11:26.539Z,3.40
2022-08-25T08:13:55.268Z,2.95
2022-08-25T08:16:24.827Z,2.80
2022-08-25T08:18:51.746Z,3.35
2022-08-25T08:21:26.105Z,3.35
2022-08-25T08:23:58.951Z,3.40
2022-08-25T08:26:36.391Z,3.03
2022-08-25T08:29:08.794Z,2.93
2022-08-25T08:31:36.465Z,3.63
2022-08-25T08:34:03.715Z,3.30
2022-08-25T08:36:30.089Z,3.95
2022-08-25T08:38:56.440Z,3.17
2022-08-25T08:44:46.203Z,2.95
2022-08-25T08:47:40.018Z,3.58
2022-08-25T08:50:27.971Z,3.25
2022-08-25T08:53:15.696Z,3.65
2022-08-25T08:55:48.325Z,3.30
2022-08-25T08:58:28.620Z,3.08
2022-08-25T09:00:58.202Z,2.95
2022-08-25T09:03:31.791Z,3.00
2022-08-25T09:06:03.406Z,3.08
2022-08-25T09:08:33.437Z,2.83
2022-08-25T09:11:18.911Z,3.05
2022-08-25T09:14:18.415Z,3.72
2022-08-25T09:16:55.324Z,3.22
2022-08-25T09:19:28.861Z,3.08
2022-08-25T09:22:04.465Z,3.17
2022-08-25T09:25:08.834Z,3.08
2022-08-25T09:28:05.939Z,2.53
2022-08-25T09:30:58.021Z,3.00
2022-08-25T09:33:27.030Z,3.47
2022-08-25T09:35:55.066Z,4.33
2022-08-25T09:38:26.166Z,2.88
2022-08-25T09:40:57.288Z,3.90
2022-08-25T09:43:40.270Z,2.97
2022-08-25T09:46:10.438Z,2.97
2022-08-25T09:49:07.718Z,2.70
2022-08-25T09:51:43.073Z,3.08
2022-08-25T09:54:12.635Z,2.85
2022-08-25T09:56:52.717Z,2.65
2022-08-25T09:59:35.184Z,2.90
2022-08-25T10:02:05.873Z,3.10
2022-08-25T10:04:40.092Z,3.00
2022-08-25T10:07:25.325Z,3.10
2022-08-25T10:09:56.747Z,3.30
2022-08-25T10:12:31.105Z,3.10
2022-08-25T10:14:57.542Z,3.50
2022-08-25T10:17:29.980Z,3.20
2022-08-25T10:20:11.528Z,2.90
2022-08-25T10:22:40.661Z,3.10
2022-08-25T10:25:10.695Z,2.85
2022-08-25T10:27:58.453Z,3.10
2022-08-25T10:30:42.861Z,3.15
2022-08-25T10:33:30.946Z,3.15
2022-08-25T10:36:04.527Z,3.42
2022-08-25T10:38:47.554Z,3.50
2022-08-25T10:41:35.711Z,2.87
2022-08-25T10:44:46.521Z,2.80
2022-08-25T10:47:31.569Z,2.70
2022-08-25T10:50:23.491Z,3.03
2022-08-25T10:53:19.038Z,2.63
2022-08-25T10:55:55.178Z,2.80
2022-08-25T10:58:36.947Z,2.63
2022-08-25T11:01:28.846Z,2.42
2022-08-25T11:04:04.899Z,2.60
2022-08-25T11:06:53.062Z,2.65
2022-08-25T11:09:33.115Z,2.60
2022-08-25T11:12:08.665Z,2.50
2022-08-25T11:14:40.183Z,2.55
2022-08-25T11:17:23.979Z,2.85
2022-08-25T11:19:57.466Z,2.40
2022-08-25T11:22:45.944Z,2.90
2022-08-25T11:25:26.087Z,2.78
2022-08-25T11:28:03.083Z,2.47
2022-08-25T11:30:30.275Z,2.28
2022-08-25T11:32:57.764Z,2.50
2022-08-25T11:35:33.958Z,2.40
2022-08-25T11:38:12.446Z,2.33
2022-08-25T11:41:12.996Z,2.63
2022-08-25T11:43:54.651Z,2.63
2022-08-25T11:46:58.672Z,2.60
2022-08-25T11:49:37.451Z,2.80
2022-08-25T11:52:30.754Z,2.72
2022-08-25T11:55:14.805Z,3.08
2022-08-25T11:57:42.678Z,2.70
2022-08-25T12:00:36.989Z,2.42
2022-08-25T12:03:45.963Z,6.33
2022-08-25T12:06:29.432Z,2.92
2022-08-25T12:09:05.345Z,2.88
2022-08-25T12:11:37.685Z,2.70
2022-08-25T12:14:13.735Z,2.55
2022-08-25T12:17:04.668Z,2.90
2022-08-25T12:19:34.085Z,2.90
2022-08-25T12:22:04.086Z,14.30
2022-08-25T12:24:47.546Z,4.50
2022-08-25T12:27:28.139Z,7.38
2022-08-25T12:30:18.482Z,2.60
2022-08-25T12:33:17.612Z,4.40
2022-08-25T12:35:57.788Z,4.35
2022-08-25T12:38:43.574Z,6.07
2022-08-25T12:41:18.523Z,3.67
2022-08-25T12:43:48.016Z,2.77
2022-08-25T12:46:23.755Z,3.40
2022-08-25T12:49:01.515Z,2.40
2022-08-25T12:51:33.881Z,2.40
2022-08-25T12:54:22.444Z,2.88
2022-08-25T12:56:59.228Z,2.60
2022-08-25T12:59:37.430Z,2.70
2022-08-25T13:02:15.778Z,2.25
2022-08-25T13:05:01.554Z,2.72
2022-08-25T13:07:48.047Z,2.92
2022-08-25T13:10:42.511Z,3.00
2022-08-25T13:13:08.969Z,2.95
2022-08-25T13:15:41.764Z,3.05
2022-08-25T13:18:26.347Z,2.60
2022-08-25T13:21:13.528Z,2.65
2022-08-25T13:23:44.041Z,5.60
2022-08-25T13:26:15.354Z,5.35
2022-08-25T13:28:50.385Z,2.95
2022-08-25T13:31:28.142Z,2.30
2022-08-25T13:34:00.074Z,2.63
2022-08-25T13:36:54.297Z,2.90
2022-08-25T13:39:45.703Z,2.80
2022-08-25T13:42:17.487Z,3.00
2022-08-25T13:44:51.927Z,2.60
2022-08-25T13:47:43.786Z,2.45
2022-08-25T13:50:27.030Z,2.70
2022-08-25T13:53:21.493Z,2.80
2022-08-25T13:55:53.072Z,3.00
2022-08-25T13:58:39.487Z,2.60
2022-08-25T14:01:22.748Z,2.60
2022-08-25T14:04:39.525Z,3.30
2022-08-25T14:07:23.116Z,2.88
2022-08-25T14:09:52.344Z,3.00
2022-08-25T14:12:44.823Z,3.10
2022-08-25T14:15:17.642Z,3.30
2022-08-25T14:17:48.889Z,2.60
2022-08-25T14:20:28.695Z,2.90
2022-08-25T14:23:09.793Z,2.67
2022-08-25T14:25:36.848Z,2.90
2022-08-25T14:28:13.809Z,2.72
2022-08-25T14:30:46.090Z,2.90
2022-08-25T14:33:14.301Z,2.70
2022-08-25T14:35:43.555Z,2.90
2022-08-25T14:38:11.435Z,3.13
2022-08-25T14:40:39.362Z,2.55
2022-08-25T14:43:10.115Z,2.97
2022-08-25T14:45:40.088Z,3.20
2022-08-25T14:48:10.439Z,3.17
2022-08-25T14:50:37.381Z,2.80
2022-08-25T14:53:03.981Z,2.80
2022-08-25T14:55:32.193Z,2.90
2022-08-25T14:57:59.360Z,2.90
2022-08-25T15:00:26.399Z,3.20
2022-08-25T15:02:54.829Z,2.72
2022-08-25T15:05:26.878Z,2.97
2022-08-25T15:08:13.102Z,2.70
2022-08-25T15:10:40.275Z,2.90
2022-08-25T15:13:06.970Z,3.00
2022-08-25T15:15:38.036Z,2.90
2022-08-25T15:18:05.342Z,2.80
2022-08-25T15:20:32.646Z,2.77
2022-08-25T15:22:59.050Z,2.90
2022-08-25T15:25:25.528Z,2.85
2022-08-25T15:27:52.016Z,2.50
2022-08-25T15:30:18.523Z,2.88
2022-08-25T15:32:44.921Z,2.70
2022-08-25T15:35:15.198Z,2.80
2022-08-25T15:37:42.125Z,2.75
2022-08-25T15:40:09.112Z,2.85
2022-08-25T15:42:37.772Z,3.10
2022-08-25T15:45:10.354Z,2.83
2022-08-25T15:47:36.944Z,2.90
2022-08-25T15:50:14.527Z,2.35
2022-08-25T15:52:46.673Z,2.75
2022-08-25T15:55:14.916Z,2.97
2022-08-25T15:57:42.289Z,3.03
2022-08-25T16:00:13.699Z,3.13
2022-08-25T16:02:44.739Z,2.97
2022-08-25T16:05:12.068Z,3.13
2022-08-25T16:07:40.115Z,2.97
2022-08-25T16:10:07.044Z,2.83
2022-08-25T16:12:33.489Z,2.70
2022-08-25T16:14:59.908Z,2.65
2022-08-25T16:17:26.631Z,2.75
2022-08-25T16:19:52.974Z,2.83
2022-08-25T16:22:19.326Z,2.80
2022-08-25T16:24:45.730Z,3.05
2022-08-25T16:27:12.995Z,2.70
2022-08-25T16:29:44.081Z,2.90
2022-08-25T16:32:13.301Z,2.75
2022-08-25T16:34:40.788Z,2.90
2022-08-25T16:37:08.524Z,3.20
2022-08-25T16:39:35.651Z,2.97
2022-08-25T16:42:02.061Z,3.90
2022-08-25T16:44:28.486Z,2.75
2022-08-25T16:46:55.274Z,3.00
2022-08-25T16:49:24.246Z,2.80
2022-08-25T16:51:57.228Z,2.90
2022-08-25T16:54:42.630Z,3.00
2022-08-25T16:57:09.020Z,3.08
2022-08-25T16:59:35.680Z,2.83
2022-08-25T17:02:02.205Z,3.10
2022-08-25T17:04:32.003Z,3.10
2022-08-25T17:06:58.819Z,3.03
2022-08-25T17:09:25.176Z,2.88
2022-08-25T17:11:56.513Z,2.60
2022-08-25T17:14:23.043Z,2.92
2022-08-25T17:16:51.060Z,2.83
2022-08-25T17:19:17.757Z,2.60
2022-08-25T17:21:46.150Z,3.00
2022-08-25T17:24:13.707Z,3.03
2022-08-25T17:26:42.866Z,3.25
2022-08-25T17:29:11.497Z,3.80
2022-08-25T17:31:40.052Z,5.35
2022-08-25T17:34:10.552Z,5.20
2022-08-25T17:36:37.271Z,5.07
2022-08-25T17:39:04.485Z,5.00
2022-08-25T17:41:33.495Z,4.93
2022-08-25T17:44:04.672Z,4.93
2022-08-25T17:46:31.148Z,5.20
2022-08-25T17:48:57.648Z,4.93
2022-08-25T17:51:25.204Z,5.22
2022-08-25T17:53:52.720Z,5.28
2022-08-25T17:56:21.877Z,5.00
2022-08-25T17:58:49.883Z,5.15
2022-08-25T18:01:22.375Z,5.40
2022-08-25T18:03:49.735Z,5.00
2022-08-25T18:06:17.316Z,5.28
2022-08-25T18:08:44.993Z,5.05
2022-08-25T18:11:19.676Z,5.22
2022-08-25T18:13:46.686Z,6.30
2022-08-25T18:16:14.099Z,6.35
2022-08-25T18:18:41.348Z,7.10
2022-08-25T18:21:17.853Z,7.20
2022-08-25T18:23:45.711Z,7.00
2022-08-25T18:26:14.727Z,6.80
2022-08-25T18:28:43.925Z,7.47
2022-08-25T18:31:11.978Z,6.65
2022-08-25T18:33:41.882Z,6.82
2022-08-25T18:36:09.762Z,6.88
2022-08-25T18:38:58.254Z,6.70
2022-08-25T18:41:26.094Z,6.43
2022-08-25T18:43:53.004Z,6.78
2022-08-25T18:46:19.617Z,6.72
2022-08-25T18:48:49.435Z,7.00
2022-08-25T18:51:22.849Z,7.50
2022-08-25T18:53:51.044Z,7.85
2022-08-25T18:56:19.165Z,9.10
2022-08-25T18:58:46.732Z,9.27
2022-08-25T19:01:18.266Z,9.27
2022-08-25T19:03:45.720Z,11.07
2022-08-25T19:06:12.323Z,11.73
2022-08-25T19:08:41.935Z,12.38
2022-08-25T19:11:09.662Z,12.85
2022-08-25T19:13:36.268Z,15.07
2022-08-25T19:16:13.837Z,16.37
2022-08-25T19:18:45.236Z,17.23
2022-08-25T19:21:11.933Z,18.10
2022-08-25T19:23:39.044Z,20.40
2022-08-25T19:26:07.795Z,18.77
2022-08-25T19:28:40.323Z,20.13
2022-08-25T19:31:12.544Z,22.13
2022-08-25T19:33:44.579Z,22.13
2022-08-25T19:36:12.737Z,21.92
2022-08-25T19:38:39.299Z,23.10
2022-08-25T19:41:14.067Z,23.43
2022-08-25T19:43:55.735Z,24.90
2022-08-25T19:46:32.963Z,26.10
2022-08-25T19:49:06.334Z,26.08
2022-08-25T19:51:34.661Z,27.35
2022-08-25T19:54:02.916Z,28.17
2022-08-25T19:56:30.963Z,29.95
2022-08-25T19:58:57.351Z,26.30
2022-08-25T20:01:24.244Z,28.55
2022-08-25T20:03:52.067Z,27.95
2022-08-25T20:06:18.959Z,27.33
2022-08-25T20:08:45.364Z,26.70
2022-08-25T20:11:12.740Z,27.27
2022-08-25T20:13:39.404Z,26.67
2022-08-25T20:16:05.933Z,26.67
2022-08-25T20:18:32.485Z,24.13
2022-08-25T20:20:58.998Z,23.83
2022-08-25T20:23:43.993Z,23.77
2022-08-25T20:26:10.382Z,23.02
2022-08-25T20:28:37.005Z,23.17
2022-08-25T20:31:03.471Z,21.60
2022-08-25T20:33:29.911Z,20.25
2022-08-25T20:35:56.664Z,20.00
2022-08-25T20:38:24.735Z,20.05
2022-08-25T20:40:53.133Z,19.67
2022-08-25T20:43:20.691Z,18.60
2022-08-25T20:45:47.361Z,18.65
2022-08-25T20:48:13.761Z,18.05
2022-08-25T20:50:40.176Z,18.10
2022-08-25T20:53:10.250Z,17.42
2022-08-25T20:55:43.714Z,17.20
2022-08-25T20:58:10.434Z,16.65
2022-08-25T21:00:36.823Z,16.25
2022-08-25T21:03:03.262Z,15.50
2022-08-25T21:05:29.968Z,16.35
2022-08-25T21:07:56.394Z,15.23
2022-08-25T21:10:23.424Z,14.75
2022-08-25T21:12:53.556Z,15.00
2022-08-25T21:15:20.404Z,14.57
2022-08-25T21:17:53.079Z,15.57
2022-08-25T21:20:23.601Z,15.30
2022-08-25T21:22:50.372Z,14.73
2022-08-25T21:25:18.047Z,15.00
2022-08-25T21:27:44.849Z,15.93
2022-08-25T21:30:14.810Z,15.13
2022-08-25T21:32:53.498Z,14.43
2022-08-25T21:35:21.191Z,14.77
2022-08-25T21:37:48.944Z,13.38
2022-08-25T21:40:20.905Z,14.38
2022-08-25T21:42:47.293Z,13.18
2022-08-25T21:45:14.021Z,13.63
2022-08-25T21:47:42.366Z,11.27
2022-08-25T21:50:11.250Z,11.85
2022-08-25T21:52:37.711Z,11.18
2022-08-25T21:55:06.026Z,9.98
2022-08-25T21:57:32.677Z,9.90
2022-08-25T22:00:07.843Z,9.55
2022-08-25T22:02:35.519Z,8.95
2022-08-25T22:05:01.958Z,8.73
2022-08-25T22:07:29.050Z,8.65
2022-08-25T22:10:01.119Z,8.10
2022-08-25T22:12:27.569Z,8.20
2022-08-25T22:14:53.969Z,8.50
2022-08-25T22:17:24.237Z,7.95
2022-08-25T22:19:53.650Z,7.63
2022-08-25T22:22:20.964Z,6.80
2022-08-25T22:24:47.574Z,7.20
2022-08-25T22:27:15.801Z,6.13
2022-08-25T22:29:43.763Z,6.28
2022-08-25T22:32:10.656Z,6.65
2022-08-25T22:34:40.324Z,6.47
2022-08-25T22:37:06.743Z,5.97
2022-08-25T22:39:34.847Z,6.10
2022-08-25T22:42:02.063Z,5.82
2022-08-25T22:44:28.530Z,5.28
2022-08-25T22:46:54.965Z,5.10
2022-08-25T22:49:21.658Z,5.15
2022-08-25T22:51:48.154Z,4.97
2022-08-25T22:54:15.612Z,4.82
2022-08-25T22:56:42.227Z,4.32
2022-08-25T22:59:11.677Z,3.80
2022-08-25T23:01:38.692Z,3.58
2022-08-25T23:04:06.654Z,3.58
2022-08-25T23:06:34.397Z,3.03
2022-08-25T23:09:05.832Z,3.20
2022-08-25T23:11:32.381Z,2.80
2022-08-25T23:14:05.365Z,2.80
2022-08-25T23:16:32.842Z,2.13
2022-08-25T23:18:59.707Z,2.38
2022-08-25T23:21:45.339Z,2.40
2022-08-25T23:24:13.271Z,2.67
2022-08-25T23:26:42.571Z,2.70
2022-08-25T23:29:17.790Z,2.05
2022-08-25T23:31:45.835Z,2.10
2022-08-25T23:34:14.065Z,2.35
2022-08-25T23:36:40.514Z,2.40
2022-08-25T23:39:07.897Z,2.40
2022-08-25T23:41:36.856Z,2.45
2022-08-25T23:44:05.257Z,2.80
2022-08-25T23:46:32.180Z,3.28
2022-08-25T23:48:58.549Z,2.90
2022-08-25T23:51:29.788Z,2.97
2022-08-25T23:53:57.296Z,2.63
2022-08-25T23:56:25.809Z,3.15
2022-08-25T23:58:52.239Z,3.30
